Time;durP1;ratioP1;P1;durP2;ratioP2;P2;SDS_P1;SDS_P2;PMS_P1;PMS_P2;Temp;Humidity;BMP_temperature;BMP_pressure;BME280_temperature;BME280_humidity;BME280_pressure;Samples;Min_cycle;Max_cycle;Signal;HPM_P1;HPM_P2
2022/12/23 00:00:58;;;;;;;22.62;8.68;;;;;;;4.81;100.00;101231.06;1756128;81;21476;-86
2022/12/23 00:03:24;;;;;;;20.08;7.22;;;;;;;4.82;100.00;101225.21;1756031;81;21059;-85
2022/12/23 00:05:51;;;;;;;19.62;7.55;;;;;;;4.81;100.00;101220.39;1756005;81;21499;-86
2022/12/23 00:08:17;;;;;;;21.02;6.85;;;;;;;4.81;100.00;101227.06;1756130;81;21118;-86
2022/12/23 00:10:43;;;;;;;17.10;6.30;;;;;;;4.83;100.00;101231.69;1755778;81;21051;-85
2022/12/23 00:16:08;;;;;;;16.67;6.67;;;;;;;4.86;100.00;101225.12;1748475;82;21012;-85
2022/12/23 00:18:35;;;;;;;15.30;6.00;;;;;;;4.87;100.00;101218.22;1748851;82;21513;-85
2022/12/23 00:21:05;;;;;;;15.63;6.53;;;;;;;4.86;100.00;101215.26;1748858;82;21059;-87
2022/12/23 00:23:34;;;;;;;16.27;6.60;;;;;;;4.74;100.00;101210.23;1748809;82;21098;-85
2022/12/23 00:26:01;;;;;;;17.50;6.20;;;;;;;4.82;100.00;101205.19;1748876;82;21009;-86
2022/12/23 00:28:28;;;;;;;16.75;6.03;;;;;;;4.81;100.00;101204.37;1748766;82;20977;-86
2022/12/23 00:31:01;;;;;;;13.93;6.00;;;;;;;4.75;100.00;101202.52;1748654;82;21004;-86
2022/12/23 00:33:32;;;;;;;17.10;6.55;;;;;;;4.76;100.00;101197.48;1748811;82;21087;-86
2022/12/23 00:35:59;;;;;;;13.62;5.65;;;;;;;4.71;100.00;101188.77;1720520;83;21165;-86
2022/12/23 00:43:59;;;;;;;20.05;6.17;;;;;;;4.68;100.00;101181.70;1721772;83;21649;-86
2022/12/23 00:46:25;;;;;;;15.38;5.42;;;;;;;4.68;100.00;101181.70;1722370;83;21106;-85
2022/12/23 00:51:35;;;;;;;12.23;5.50;;;;;;;4.70;100.00;101184.96;1722275;83;21625;-85
2022/12/23 00:54:02;;;;;;;20.77;5.90;;;;;;;4.68;100.00;101171.02;1722384;83;20990;-83
2022/12/23 00:56:28;;;;;;;13.35;5.15;;;;;;;4.66;100.00;101167.20;1722117;83;20971;-85
2022/12/23 00:58:54;;;;;;;14.03;5.47;;;;;;;4.69;100.00;101163.30;1721504;83;21170;-84
2022/12/23 01:06:49;;;;;;;13.58;5.33;;;;;;;4.70;100.00;101163.61;1720911;83;21062;-86
2022/12/23 01:09:15;;;;;;;13.72;5.42;;;;;;;4.72;100.00;101165.05;1720950;83;20931;-86
2022/12/23 01:11:41;;;;;;;13.98;5.95;;;;;;;4.71;100.00;101163.41;1717776;83;21816;-85
2022/12/23 01:14:11;;;;;;;13.85;5.72;;;;;;;4.69;100.00;101166.80;1711221;82;21019;-87
2022/12/23 01:16:38;;;;;;;12.98;4.95;;;;;;;4.73;100.00;101166.67;1711344;83;21027;-86
2022/12/23 01:19:06;;;;;;;11.90;5.08;;;;;;;4.76;100.00;101157.44;1711361;82;21071;-86
2022/12/23 01:21:32;;;;;;;13.95;5.97;;;;;;;4.76;100.00;101163.63;1701210;82;21087;-86
2022/12/23 01:23:59;;;;;;;12.75;5.28;;;;;;;4.79;100.00;101163.70;1701068;84;21144;-86
2022/12/23 01:26:26;;;;;;;14.58;6.17;;;;;;;4.81;100.00;101157.64;1701337;83;21058;-85
2022/12/23 01:28:57;;;;;;;16.60;5.87;;;;;;;4.77;100.00;101153.75;1701336;83;21047;-86
2022/12/23 01:31:25;;;;;;;17.20;6.08;;;;;;;4.80;100.00;101153.86;1701489;84;21087;-86
2022/12/23 01:33:52;;;;;;;14.47;5.20;;;;;;;4.80;100.00;101145.33;1710068;83;21008;-86
2022/12/23 01:36:20;;;;;;;16.35;6.33;;;;;;;4.81;100.00;101148.81;1710848;83;21113;-86
2022/12/23 01:38:47;;;;;;;13.03;5.50;;;;;;;4.82;100.00;101150.45;1710866;83;21016;-86
2022/12/23 01:44:58;;;;;;;11.85;5.40;;;;;;;4.80;100.00;101145.33;1644404;85;21034;-86
2022/12/23 01:47:41;;;;;;;13.93;5.30;;;;;;;4.82;100.00;101135.23;1639309;87;21018;-84
2022/12/23 01:50:15;;;;;;;14.40;6.23;;;;;;;4.80;100.00;101141.33;1631414;86;21148;-85
2022/12/23 01:52:46;;;;;;;15.10;5.83;;;;;;;4.79;100.00;101142.33;1541921;91;21070;-85
2022/12/23 01:55:17;;;;;;;15.78;5.62;;;;;;;4.75;100.00;101138.45;1562048;91;21110;-86
2022/12/23 01:57:44;;;;;;;15.35;6.10;;;;;;;4.77;100.00;101137.22;1562146;90;21612;-85
2022/12/23 02:05:42;;;;;;;17.23;5.95;;;;;;;4.82;100.00;101130.42;1561625;90;21090;-85
2022/12/23 02:11:29;;;;;;;25.68;6.97;;;;;;;4.80;100.00;101120.48;1561758;90;21063;-85
2022/12/23 02:16:57;;;;;;;18.65;6.83;;;;;;;4.81;100.00;101118.11;1584997;90;21157;-85
2022/12/23 02:19:46;;;;;;;17.48;7.17;;;;;;;4.80;100.00;101127.16;1582082;90;21145;-85
2022/12/23 02:22:25;;;;;;;17.52;5.53;;;;;;;4.81;100.00;101116.77;1582545;90;21604;-85
2022/12/23 02:25:02;;;;;;;15.28;5.95;;;;;;;4.81;100.00;101121.59;1541582;93;21728;-85
2022/12/23 02:27:36;;;;;;;14.18;5.65;;;;;;;4.81;100.00;101117.59;1509298;94;21715;-85
2022/12/23 02:30:26;;;;;;;16.23;6.20;;;;;;;4.85;100.00;101112.13;1518463;94;21370;-86
2022/12/23 02:33:18;;;;;;;14.40;5.45;;;;;;;4.87;100.00;101107.92;1518322;94;21685;-86
2022/12/23 02:35:58;;;;;;;13.65;5.78;;;;;;;4.86;100.00;101112.97;1518496;94;22568;-85
2022/12/23 02:38:35;;;;;;;14.68;5.55;;;;;;;4.84;100.00;101106.49;1472910;97;21080;-85
2022/12/23 02:41:24;;;;;;;11.50;4.97;;;;;;;4.85;100.00;101105.45;1544754;92;21670;-85
2022/12/23 02:43:58;;;;;;;16.95;6.03;;;;;;;4.84;100.00;101105.67;1530495;93;21136;-86
2022/12/23 02:46:32;;;;;;;13.95;5.45;;;;;;;4.81;100.00;101102.09;1525853;94;21515;-86
2022/12/23 02:49:24;;;;;;;12.03;5.15;;;;;;;4.82;100.00;101108.54;1533082;92;21158;-85
2022/12/23 02:51:54;;;;;;;16.35;5.20;;;;;;;4.83;100.00;101106.72;1544684;92;20997;-85
2022/12/23 02:54:28;;;;;;;15.70;5.60;;;;;;;4.80;100.00;101105.28;1544547;92;21158;-86
2022/12/23 02:56:57;;;;;;;13.72;5.12;;;;;;;4.84;100.00;101107.83;1542002;92;21198;-86
2022/12/23 02:59:28;;;;;;;15.20;5.55;;;;;;;4.80;100.00;101103.94;1544745;92;21032;-86
2022/12/23 03:01:54;;;;;;;14.33;5.50;;;;;;;4.82;100.00;101100.53;1544807;92;21107;-86
2022/12/23 03:04:20;;;;;;;11.12;4.97;;;;;;;4.86;100.00;101101.77;1544564;92;21132;-85
2022/12/23 03:06:53;;;;;;;13.93;5.80;;;;;;;4.89;100.00;101105.36;1544812;92;21612;-86
2022/12/23 03:09:30;;;;;;;11.38;4.92;;;;;;;4.92;100.00;101105.45;1544853;92;21198;-86
2022/12/23 03:12:04;;;;;;;14.20;5.97;;;;;;;4.91;100.00;101105.13;1498528;95;21216;-87
2022/12/23 03:15:06;;;;;;;14.28;5.35;;;;;;;4.91;100.00;101109.14;1514875;94;21618;-86
2022/12/23 03:17:57;;;;;;;12.13;5.40;;;;;;;4.91;100.00;101107.31;1587537;89;21213;-86
2022/12/23 03:20:32;;;;;;;14.70;5.60;;;;;;;4.93;100.00;101101.75;1587775;89;21051;-86
2022/12/23 03:23:26;;;;;;;12.65;5.70;;;;;;;4.94;100.00;101106.05;1611622;86;21256;-86
2022/12/23 03:26:12;;;;;;;14.35;5.75;;;;;;;4.98;100.00;101104.62;1614832;88;21134;-86
2022/12/23 03:28:48;;;;;;;12.98;5.47;;;;;;;4.98;100.00;101106.77;1589138;90;21053;-86
2022/12/23 03:31:20;;;;;;;16.25;5.60;;;;;;;4.96;100.00;101104.00;1591205;90;21496;-86
2022/12/23 03:33:51;;;;;;;14.15;6.37;;;;;;;4.97;100.00;101102.95;1588189;90;21108;-86
2022/12/23 03:36:24;;;;;;;13.43;5.60;;;;;;;4.97;100.00;101109.14;1591227;90;21183;-86
2022/12/23 03:38:51;;;;;;;;;;;;;;;4.97;100.00;101110.97;1593681;90;21510;-86
2022/12/23 03:41:23;;;;;;;16.10;5.70;;;;;;;4.97;100.00;101111.81;1591241;90;20188;-86
2022/12/23 03:43:54;;;;;;;14.98;5.45;;;;;;;5.01;100.00;101113.55;1609668;88;21713;-85
2022/12/23 03:46:43;;;;;;;15.80;6.22;;;;;;;5.02;100.00;101113.84;1541214;93;21158;-86
2022/12/23 03:49:14;;;;;;;15.05;6.05;;;;;;;5.05;100.00;101107.26;1540790;93;21147;-87
2022/12/23 03:51:51;;;;;;;15.65;6.42;;;;;;;5.04;100.00;101110.97;1491116;96;21045;-87
2022/12/23 03:54:32;;;;;;;19.15;6.92;;;;;;;5.06;100.00;101103.55;1500580;94;21532;-87
2022/12/23 03:57:02;;;;;;;23.02;6.92;;;;;;;5.03;100.00;101102.14;1485004;95;21097;-86
2022/12/23 03:59:35;;;;;;;15.28;6.37;;;;;;;5.04;100.00;101101.63;1473068;97;21127;-86
2022/12/23 04:02:18;;;;;;;15.30;6.33;;;;;;;5.06;100.00;101101.72;1458804;98;21166;-85
2022/12/23 04:05:04;;;;;;;21.65;6.90;;;;;;;5.09;100.00;101103.97;1472973;97;21285;-86
2022/12/23 04:07:54;;;;;;;18.87;6.67;;;;;;;5.10;100.00;101107.45;1471569;97;21092;-85
2022/12/23 04:12:51;;;;;;;15.30;6.50;;;;;;;5.08;100.00;101102.30;1405694;101;21112;-86
2022/12/23 04:15:22;;;;;;;18.48;7.10;;;;;;;5.13;100.00;101097.68;1388551;103;21252;-87
2022/12/23 04:17:50;;;;;;;15.78;7.12;;;;;;;5.14;100.00;101095.30;1358622;104;21167;-87
2022/12/23 04:20:17;;;;;;;17.65;7.10;;;;;;;5.15;100.00;101095.11;1366370;105;21650;-87
2022/12/23 04:22:44;;;;;;;16.70;6.75;;;;;;;5.15;100.00;101087.09;1366339;105;21720;-87
2022/12/23 04:25:12;;;;;;;19.60;7.62;;;;;;;5.15;100.00;101085.76;1366504;105;21159;-87
2022/12/23 04:27:38;;;;;;;18.50;8.28;;;;;;;5.16;100.00;101082.05;1366378;105;21187;-87
2022/12/23 04:30:07;;;;;;;20.35;7.78;;;;;;;5.18;100.00;101080.52;1366203;105;21291;-86
2022/12/23 04:32:33;;;;;;;24.12;8.05;;;;;;;5.18;100.00;101078.66;1327562;105;21214;-86
2022/12/23 04:34:59;;;;;;;22.27;8.13;;;;;;;5.21;100.00;101072.07;1320187;108;21171;-86
2022/12/23 04:37:25;;;;;;;25.12;8.73;;;;;;;5.23;100.00;101070.83;1320216;108;21698;-86
2022/12/23 04:39:51;;;;;;;21.33;8.33;;;;;;;5.28;100.00;101072.03;1320197;108;21302;-85
2022/12/23 04:42:17;;;;;;;19.52;8.68;;;;;;;5.28;100.00;101072.03;1320163;108;21314;-87
2022/12/23 04:44:43;;;;;;;24.02;9.85;;;;;;;5.30;100.00;101072.13;1320333;108;21021;-87
2022/12/23 04:47:09;;;;;;;21.27;8.55;;;;;;;5.30;100.00;101072.13;1299016;110;21155;-87
2022/12/23 04:49:35;;;;;;;24.82;8.50;;;;;;;5.35;100.00;101069.61;1367193;102;21166;-86
2022/12/23 04:52:01;;;;;;;23.05;8.25;;;;;;;5.38;100.00;101067.03;1406877;99;21238;-86
2022/12/23 04:54:27;;;;;;;19.23;7.85;;;;;;;5.40;100.00;101066.31;1496897;94;21053;-86
2022/12/23 04:56:53;;;;;;;19.15;8.03;;;;;;;5.40;100.00;101060.45;1511596;94;20989;-86
2022/12/23 04:59:19;;;;;;;20.57;8.20;;;;;;;5.41;100.00;101061.27;1538780;93;21094;-87
2022/12/23 05:01:45;;;;;;;20.35;7.83;;;;;;;5.41;100.00;101065.27;1558633;90;21676;-85
2022/12/23 05:04:12;;;;;;;25.37;8.45;;;;;;;5.41;100.00;101065.27;1590702;90;21096;-86
2022/12/23 05:06:38;;;;;;;25.62;8.25;;;;;;;5.40;100.00;101067.65;1590311;90;21024;-86
2022/12/23 05:09:07;;;;;;;21.82;8.53;;;;;;;5.45;100.00;101073.19;1601868;87;21001;-86
2022/12/23 05:11:33;;;;;;;26.45;9.18;;;;;;;5.47;100.00;101077.77;1664734;83;21042;-86
2022/12/23 05:13:59;;;;;;;24.15;8.88;;;;;;;5.47;100.00;101075.10;1713870;82;20989;-85
2022/12/23 05:16:25;;;;;;;20.80;8.30;;;;;;;5.49;100.00;101082.40;1756152;81;21871;-86
2022/12/23 05:18:51;;;;;;;20.52;8.25;;;;;;;5.52;100.00;101083.30;1756191;81;20938;-86
2022/12/23 05:21:17;;;;;;;22.55;9.13;;;;;;;5.56;100.00;101083.69;1756162;81;20899;-87
2022/12/23 05:23:43;;;;;;;24.07;9.08;;;;;;;5.55;100.00;101078.87;1756047;81;21027;-86
2022/12/23 05:26:10;;;;;;;23.42;9.35;;;;;;;5.59;100.00;101080.09;1756391;81;21530;-86
2022/12/23 05:28:39;;;;;;;20.35;8.60;;;;;;;5.61;100.00;101084.69;1755857;81;21180;-86
2022/12/23 05:31:07;;;;;;;23.95;9.35;;;;;;;5.62;100.00;101086.34;1755942;81;21066;-84
2022/12/23 05:33:34;;;;;;;26.95;9.85;;;;;;;5.64;100.00;101095.48;1755977;81;21042;-85
2022/12/23 05:36:00;;;;;;;23.52;10.03;;;;;;;5.66;100.00;101097.42;1755999;81;21070;-85
2022/12/23 05:38:27;;;;;;;24.50;9.30;;;;;;;5.66;100.00;101103.59;1756121;81;21502;-85
2022/12/23 05:40:53;;;;;;;24.50;9.63;;;;;;;5.68;100.00;101104.73;1756240;81;21124;-85
2022/12/23 05:43:19;;;;;;;23.80;9.68;;;;;;;5.70;100.00;101105.31;1756194;81;21011;-85
2022/12/23 05:45:46;;;;;;;25.25;9.25;;;;;;;5.73;100.00;101112.91;1756171;81;21468;-85
2022/12/23 05:48:12;;;;;;;24.50;9.08;;;;;;;5.75;100.00;101113.52;1757984;81;21009;-85
2022/12/23 05:50:38;;;;;;;25.50;9.78;;;;;;;5.78;100.00;101117.09;1755887;81;20970;-86
2022/12/23 05:53:05;;;;;;;24.07;9.00;;;;;;;5.77;100.00;101110.12;1756194;81;21960;-85
2022/12/23 05:55:31;;;;;;;22.07;9.30;;;;;;;5.82;100.00;101110.80;1756076;81;21601;-85
2022/12/23 05:57:57;;;;;;;23.27;9.10;;;;;;;5.84;100.00;101108.73;1752280;81;20892;-86
2022/12/23 06:00:24;;;;;;;27.30;10.08;;;;;;;5.84;100.00;101105.53;1732995;81;21571;-86
2022/12/23 06:02:50;;;;;;;25.20;8.98;;;;;;;5.84;100.00;101109.55;1756157;81;21018;-85
2022/12/23 06:05:16;;;;;;;24.00;9.10;;;;;;;5.86;100.00;101109.34;1756182;81;21009;-84
2022/12/23 06:07:42;;;;;;;27.40;8.50;;;;;;;5.86;100.00;101110.16;1756374;81;20999;-85
2022/12/23 06:10:10;;;;;;;300.80;86.32;;;;;;;5.89;100.00;101105.72;1756399;81;21415;-86
2022/12/23 06:12:36;;;;;;;165.65;52.25;;;;;;;5.87;100.00;101097.08;1756366;81;21002;-85
2022/12/23 06:15:03;;;;;;;49.40;17.98;;;;;;;5.91;100.00;101092.95;1757668;81;21045;-86
2022/12/23 06:17:29;;;;;;;33.02;15.13;;;;;;;5.96;100.00;101086.16;1758416;81;21230;-86
2022/12/23 06:19:55;;;;;;;30.65;13.18;;;;;;;6.01;100.00;101083.13;1758484;81;21034;-85
2022/12/23 06:22:22;;;;;;;26.68;10.70;;;;;;;6.01;100.00;101077.78;1758623;81;20859;-86
2022/12/23 06:24:49;;;;;;;28.25;10.38;;;;;;;6.08;100.00;101078.53;1758222;81;20998;-85
2022/12/23 06:27:16;;;;;;;25.75;11.57;;;;;;;6.14;100.00;101082.20;1758589;81;21018;-84
2022/12/23 06:29:42;;;;;;;23.92;9.83;;;;;;;6.20;100.00;101088.02;1758391;81;21234;-85
2022/12/23 06:32:08;;;;;;;21.90;9.20;;;;;;;6.28;100.00;101090.42;1757690;81;20875;-85
2022/12/23 06:34:34;;;;;;;23.92;9.65;;;;;;;6.40;100.00;101083.02;1755964;81;20999;-86
2022/12/23 06:37:00;;;;;;;25.25;11.25;;;;;;;6.50;100.00;101083.32;1758516;81;20864;-85
2022/12/23 06:39:26;;;;;;;25.32;10.32;;;;;;;6.55;100.00;101084.83;1758532;81;20962;-85
2022/12/23 06:41:52;;;;;;;24.82;9.75;;;;;;;6.59;100.00;101085.52;1758451;81;21135;-85
2022/12/23 06:44:18;;;;;;;22.50;9.23;;;;;;;6.67;100.00;101079.56;1753838;81;20883;-86
2022/12/23 06:46:44;;;;;;;21.02;8.60;;;;;;;6.73;100.00;101081.35;1758475;81;22471;-85
2022/12/23 06:49:10;;;;;;;25.72;8.50;;;;;;;6.80;100.00;101074.08;1758554;81;20840;-85
2022/12/23 06:51:36;;;;;;;20.40;8.45;;;;;;;6.86;100.00;101073.71;1758341;81;21042;-85
2022/12/23 06:54:03;;;;;;;16.52;7.42;;;;;;;6.93;100.00;101076.59;1758405;81;21098;-84
2022/12/23 06:56:29;;;;;;;21.82;8.78;;;;;;;7.04;100.00;101079.88;1758763;81;20943;-86
2022/12/23 06:58:57;;;;;;;21.00;8.03;;;;;;;7.14;100.00;101080.67;1758442;81;21572;-85
2022/12/23 07:01:25;;;;;;;22.02;9.33;;;;;;;7.22;100.00;101090.28;1757098;81;20999;-85
2022/12/23 07:03:50;;;;;;;23.42;9.68;;;;;;;7.32;100.00;101082.52;1758905;81;20940;-86
2022/12/23 07:06:16;;;;;;;22.65;9.65;;;;;;;7.42;100.00;101084.67;1758666;81;21852;-86
2022/12/23 07:08:42;;;;;;;26.02;10.80;;;;;;;7.49;100.00;101074.66;1755745;81;20844;-86
2022/12/23 11:13:44;;;;;;;30.50;10.95;;;;;;;6.98;100.00;100966.09;1824254;76;26197;-86
2022/12/23 11:16:27;;;;;;;36.70;11.38;;;;;;;7.37;100.00;100966.56;1769528;79;21583;-85
2022/12/23 11:19:01;;;;;;;31.30;10.60;;;;;;;7.47;100.00;100968.98;1801780;78;21190;-85
2022/12/23 11:21:29;;;;;;;26.60;9.98;;;;;;;7.58;100.00;100971.38;1788361;78;21810;-85
2022/12/23 11:24:18;;;;;;;31.27;11.73;;;;;;;7.64;100.00;100966.96;1781579;78;21074;-85
2022/12/23 11:26:48;;;;;;;27.58;9.83;;;;;;;7.79;100.00;100970.53;1759469;78;21093;-84
2022/12/23 11:29:25;;;;;;;23.47;9.78;;;;;;;7.93;100.00;100961.22;1724090;81;21075;-85
2022/12/23 11:31:51;;;;;;;24.52;9.23;;;;;;;7.99;100.00;100962.97;1716194;81;21173;-85
2022/12/23 11:34:21;;;;;;;25.27;9.43;;;;;;;8.07;100.00;100959.94;1725665;81;21063;-85
2022/12/23 11:36:54;;;;;;;24.65;8.23;;;;;;;8.12;100.00;100950.66;1714027;81;21058;-84
2022/12/23 11:39:27;;;;;;;22.32;8.58;;;;;;;8.19;100.00;100958.59;1715423;81;21579;-85
2022/12/23 11:41:57;;;;;;;;;;;;;;;8.20;100.00;100958.34;1651901;85;21130;-84
2022/12/23 11:44:31;;;;;;;23.67;8.55;;;;;;;8.20;100.00;100959.68;1650414;85;21192;-85
2022/12/23 11:46:57;;;;;;;22.48;9.58;;;;;;;8.21;100.00;100952.47;1655442;85;21538;-85
2022/12/23 11:49:26;;;;;;;32.93;11.03;;;;;;;8.19;100.00;100958.06;1657423;85;21152;-85
2022/12/23 11:52:13;;;;;;;24.55;9.65;;;;;;;8.18;100.00;100955.09;1657521;85;21029;-86
2022/12/23 11:54:39;;;;;;;27.32;8.90;;;;;;;8.16;100.00;100958.53;1553270;91;21065;-85
2022/12/23 11:57:11;;;;;;;28.15;10.13;;;;;;;8.17;100.00;100961.49;1553044;92;21134;-85
2022/12/23 11:59:43;;;;;;;23.05;9.20;;;;;;;8.22;100.00;100958.12;1537030;91;21643;-85
2022/12/23 12:02:20;;;;;;;26.20;10.07;;;;;;;8.27;100.00;100960.11;1546741;91;21115;-85
2022/12/23 12:04:58;;;;;;;29.42;9.83;;;;;;;8.31;100.00;100960.73;1551356;91;21070;-86
2022/12/23 12:07:25;;;;;;;27.60;10.15;;;;;;;8.32;100.00;100960.20;1548113;91;21049;-86
2022/12/23 12:09:51;;;;;;;27.07;9.78;;;;;;;8.32;100.00;100961.54;1547935;91;21109;-86
2022/12/23 12:12:20;;;;;;;31.62;10.30;;;;;;;8.37;100.00;100963.81;1547336;91;21699;-85
2022/12/23 12:14:51;;;;;;;26.97;10.40;;;;;;;8.38;100.00;100964.16;1553407;91;21120;-86
2022/12/23 12:17:28;;;;;;;28.50;11.30;;;;;;;8.40;100.00;100966.05;1550393;90;21141;-86
2022/12/23 12:20:19;;;;;;;32.60;11.68;;;;;;;8.40;100.00;100971.42;1547979;92;21107;-85
2022/12/23 12:22:50;;;;;;;38.13;12.20;;;;;;;8.41;100.00;100969.55;1519887;93;21272;-86
2022/12/23 12:25:43;;;;;;;27.50;10.18;;;;;;;8.43;100.00;100967.45;1517938;93;21353;-86
2022/12/23 12:28:38;;;;;;;32.90;11.05;;;;;;;8.43;100.00;100969.33;1460463;97;21094;-85
2022/12/23 12:31:27;;;;;;;29.30;10.65;;;;;;;8.41;100.00;100969.55;1449486;97;21127;-85
2022/12/23 12:34:17;;;;;;;30.97;11.57;;;;;;;8.46;100.00;100971.02;1452714;97;21094;-85
2022/12/23 12:37:03;;;;;;;28.75;10.23;;;;;;;8.44;100.00;100973.11;1469434;97;21985;-85
2022/12/23 12:39:55;;;;;;;26.73;9.53;;;;;;;8.44;100.00;100969.61;1503085;94;21449;-85
2022/12/23 12:42:38;;;;;;;24.65;9.83;;;;;;;8.39;100.00;100966.30;1513297;94;21724;-85
2022/12/23 12:45:27;;;;;;;25.15;9.93;;;;;;;8.36;100.00;100966.22;1518505;93;21125;-85
2022/12/23 12:48:05;;;;;;;27.62;9.33;;;;;;;8.33;100.00;100960.51;1514806;93;21120;-84
2022/12/23 12:50:33;;;;;;;25.35;9.65;;;;;;;8.37;100.00;100965.16;1522234;88;22243;-85
2022/12/23 12:53:05;;;;;;;26.73;9.73;;;;;;;8.35;100.00;100969.13;1608940;87;21066;-86
2022/12/23 12:55:35;;;;;;;26.73;10.30;;;;;;;8.31;100.00;100966.10;1602017;86;21146;-84
2022/12/23 12:58:02;;;;;;;23.00;9.08;;;;;;;8.30;100.00;100965.01;1608280;86;21066;-86
2022/12/23 13:00:32;;;;;;;26.27;9.90;;;;;;;8.29;100.00;100968.19;1639357;85;21241;-86
2022/12/23 13:03:19;;;;;;;27.37;10.18;;;;;;;8.28;100.00;100973.81;1657103;84;21174;-86
2022/12/23 13:06:20;;;;;;;26.15;10.18;;;;;;;8.23;100.00;100971.82;1651545;85;21115;-84
2022/12/23 13:09:17;;;;;;;27.35;9.85;;;;;;;8.20;100.00;100977.66;1627203;87;21503;-86
2022/12/23 13:12:00;;;;;;;26.27;9.70;;;;;;;8.18;100.00;100975.76;1585263;89;21239;-86
2022/12/23 13:14:48;;;;;;;28.52;10.82;;;;;;;8.18;100.00;100971.73;1484528;95;21577;-86
2022/12/23 13:17:24;;;;;;;28.32;10.03;;;;;;;8.21;100.00;100960.52;1466362;95;22098;-86
2022/12/23 13:20:14;;;;;;;31.87;9.50;;;;;;;8.17;100.00;100964.17;1470115;95;21095;-86
2022/12/23 13:22:44;;;;;;;30.12;10.20;;;;;;;8.14;100.00;100960.62;1467234;96;21126;-86
2022/12/23 13:25:21;;;;;;;30.48;10.10;;;;;;;8.10;100.00;100959.47;1483906;93;21073;-86
2022/12/23 13:28:38;;;;;;;27.37;10.15;;;;;;;8.06;100.00;100965.02;1492039;94;21136;-86
2022/12/23 13:31:19;;;;;;;31.07;10.75;;;;;;;8.00;100.00;100964.62;1510233;93;21334;-86
2022/12/23 13:33:53;;;;;;;26.87;9.75;;;;;;;7.93;100.00;100963.90;1473042;96;21163;-86
2022/12/23 13:37:00;;;;;;;26.68;9.98;;;;;;;7.90;100.00;100961.69;1408361;98;21334;-86
2022/12/23 13:39:53;;;;;;;28.40;10.45;;;;;;;7.87;100.00;100962.96;1406683;100;21132;-85
2022/12/23 13:42:28;;;;;;;34.75;10.70;;;;;;;7.84;100.00;100957.25;1404147;100;22448;-84
2022/12/23 13:44:55;;;;;;;28.55;11.15;;;;;;;7.82;100.00;100954.78;1368446;101;21734;-84
2022/12/23 13:47:42;;;;;;;30.70;10.50;;;;;;;7.80;100.00;100952.06;1352587;105;21187;-84
2022/12/23 13:50:13;;;;;;;35.25;11.90;;;;;;;7.77;100.00;100954.69;1354740;105;21596;-84
2022/12/23 13:53:01;;;;;;;32.20;11.57;;;;;;;7.74;100.00;100954.63;1426606;98;21178;-84
2022/12/23 13:55:49;;;;;;;35.95;12.18;;;;;;;7.76;100.00;100948.20;1432750;98;21104;-85
2022/12/23 13:58:23;;;;;;;37.23;12.45;;;;;;;7.69;100.00;100945.63;1433993;98;22016;-84
2022/12/23 14:01:13;;;;;;;29.15;11.88;;;;;;;7.67;100.00;100948.53;1391000;100;21196;-84
2022/12/23 14:03:39;;;;;;;33.35;11.83;;;;;;;7.64;100.00;100955.70;1420189;98;21064;-84
2022/12/23 14:06:35;;;;;;;35.43;12.80;;;;;;;7.63;100.00;100948.71;1470480;96;20968;-84
2022/12/23 14:09:02;;;;;;;38.17;12.30;;;;;;;7.59;100.00;100950.23;1475877;95;21240;-84
2022/12/23 14:11:31;;;;;;;40.85;13.08;;;;;;;7.56;100.00;100953.38;1485511;95;21307;-84
2022/12/23 14:14:01;;;;;;;45.43;13.28;;;;;;;7.59;100.00;100948.05;1487367;95;21095;-84
2022/12/23 14:17:08;;;;;;;42.00;13.83;;;;;;;7.59;100.00;100950.73;1476772;95;21169;-84
2022/12/23 14:19:55;;;;;;;38.02;13.03;;;;;;;7.55;100.00;100954.41;1501488;93;21137;-85
2022/12/23 14:22:49;;;;;;;32.80;11.88;;;;;;;7.56;100.00;100958.75;1482635;95;21092;-86
2022/12/23 14:25:55;;;;;;;40.40;12.05;;;;;;;7.49;100.00;100958.02;1473765;96;21238;-86
2022/12/23 14:28:33;;;;;;;35.17;13.25;;;;;;;7.44;100.00;100950.67;1529392;92;21152;-86
2022/12/23 14:31:04;;;;;;;37.13;12.95;;;;;;;7.44;100.00;100953.86;1530433;93;21115;-85
2022/12/23 14:33:36;;;;;;;41.80;12.55;;;;;;;7.41;100.00;100956.50;1543651;91;21723;-86
2022/12/23 14:36:25;;;;;;;37.78;12.03;;;;;;;7.42;100.00;100958.13;1552349;91;21197;-86
2022/12/23 14:39:15;;;;;;;34.08;12.00;;;;;;;7.43;100.00;100960.28;1554061;91;21376;-86
2022/12/23 14:41:51;;;;;;;32.83;11.18;;;;;;;7.39;100.00;100954.56;1531941;90;21162;-86
2022/12/23 14:44:39;;;;;;;33.42;11.48;;;;;;;7.39;100.00;100961.27;1507018;93;21149;-86
2022/12/23 14:47:33;;;;;;;34.53;12.05;;;;;;;7.36;100.00;100957.70;1504055;93;21129;-87
2022/12/23 14:50:40;;;;;;;32.70;11.88;;;;;;;7.34;100.00;100959.79;1513687;92;21771;-86
2022/12/23 14:53:28;;;;;;;34.33;12.47;;;;;;;7.33;100.00;100953.33;1503807;92;21170;-85
2022/12/23 14:56:22;;;;;;;30.77;11.38;;;;;;;7.38;100.00;100954.78;1503875;93;21125;-85
2022/12/23 14:58:58;;;;;;;30.43;11.57;;;;;;;7.38;100.00;100955.63;1596622;88;21045;-86
2022/12/23 15:01:41;;;;;;;36.80;11.70;;;;;;;7.39;100.00;100955.09;1596706;88;21149;-86
2022/12/23 15:04:26;;;;;;;34.50;12.63;;;;;;;7.37;100.00;100951.28;1591859;88;21553;-86
2022/12/23 15:07:06;;;;;;;38.78;13.43;;;;;;;7.28;100.00;100949.98;1606782;87;21863;-86
2022/12/23 15:09:37;;;;;;;37.08;13.50;;;;;;;7.27;100.00;100953.72;1600219;87;21061;-86
2022/12/23 15:12:21;;;;;;;38.58;12.98;;;;;;;7.31;100.00;100954.89;1594239;88;21055;-86
2022/12/23 15:14:55;;;;;;;;;;;;;;;7.35;100.00;100951.22;1589899;88;21134;-87
2022/12/23 15:17:32;;;;;;;47.40;14.30;;;;;;;7.35;100.00;100952.56;1598511;88;20206;-86
2022/12/23 15:20:17;;;;;;;41.73;15.03;;;;;;;7.35;100.00;100952.03;1594292;88;22037;-87
2022/12/23 15:22:46;;;;;;;42.58;14.95;;;;;;;7.39;100.00;100953.75;1640592;85;21125;-86
2022/12/23 15:25:29;;;;;;;58.05;16.25;;;;;;;7.44;100.00;100950.67;1644056;85;21096;-87
2022/12/23 15:27:58;;;;;;;44.93;15.83;;;;;;;7.49;100.00;100958.02;1599943;87;25077;-86
2022/12/23 15:30:27;;;;;;;41.98;14.53;;;;;;;7.43;100.00;100945.53;1607717;87;21041;-86
2022/12/23 15:33:07;;;;;;;41.00;14.35;;;;;;;7.42;100.00;100948.74;1617310;87;21169;-87
2022/12/23 15:35:37;;;;;;;38.10;14.93;;;;;;;7.40;100.00;100948.67;1611988;87;21059;-86
2022/12/23 15:38:07;;;;;;;39.53;14.78;;;;;;;7.41;100.00;100948.95;1587572;87;21176;-87
2022/12/23 15:40:37;;;;;;;41.40;14.95;;;;;;;7.42;100.00;100944.72;1559839;88;21124;-86
2022/12/23 15:43:21;;;;;;;35.73;14.18;;;;;;;7.43;100.00;100950.36;1603749;88;21084;-87
2022/12/23 15:45:47;;;;;;;50.78;15.98;;;;;;;7.40;100.00;100944.65;1617882;88;21363;-87
2022/12/23 15:48:29;;;;;;;45.52;14.28;;;;;;;7.37;100.00;100949.95;1610271;88;21049;-86
2022/12/23 15:51:07;;;;;;;43.55;14.35;;;;;;;7.39;100.00;100954.56;1608599;88;21159;-86
2022/12/23 15:53:37;;;;;;;47.78;15.55;;;;;;;7.43;100.00;100950.89;1619946;87;21577;-87
2022/12/23 15:56:08;;;;;;;59.15;15.98;;;;;;;7.44;100.00;100952.52;1599305;87;21077;-86
2022/12/23 15:58:41;;;;;;;58.80;17.48;;;;;;;7.43;100.00;100953.05;1578590;90;21781;-87
2022/12/23 16:01:16;;;;;;;73.78;18.42;;;;;;;7.38;100.00;100944.90;1583647;90;21035;-87
2022/12/23 16:03:50;;;;;;;67.95;19.00;;;;;;;7.36;100.00;100943.48;1581662;90;21053;-86
2022/12/23 16:06:23;;;;;;;62.38;16.87;;;;;;;7.35;100.00;100939.97;1474094;96;21172;-87
2022/12/23 16:09:18;;;;;;;64.60;17.67;;;;;;;7.35;100.00;100944.52;1480736;96;21195;-87
2022/12/23 20:26:22;;;;;;;82.42;23.90;;;;;;;4.49;100.00;100950.63;1781308;78;21001;-84
2022/12/23 20:28:49;;;;;;;81.00;24.35;;;;;;;4.79;100.00;100943.42;1781693;78;21347;-84
2022/12/23 20:31:20;;;;;;;75.40;23.98;;;;;;;4.96;100.00;100938.42;1769088;78;21049;-84
2022/12/23 20:33:48;;;;;;;80.30;23.73;;;;;;;4.99;100.00;100941.47;1751501;78;21552;-84
2022/12/23 20:36:18;;;;;;;74.50;22.62;;;;;;;5.15;100.00;100941.50;1772791;79;21036;-84